Archived

This topic is now archived and is closed to further replies.

kestutaitis

Fs9 runway,approach lights

Recommended Posts

Strange thing.When i flying at day,and Active sky evoliution generating weather conditions like this: EVRA 290900Z 27005KT 3SM +RA CLR 26/23 A2974,this is very low visibility weather condition,plus,rain,when approching to the runway,runway lights ,and approach lights,don't tur on,just VASI lights were on,and when i entered manualy in fs 9 user "defined weather" :EVRA 290900Z 27005KT 3SM RA CLR 26/23 A2974,all lights,runway,approach are turn on,why?????,Why,when active sky generating the low visibility weather conditions,fs9,don't tur on runway,approach lights,and when ai entered manulay the same weather conditions into user defined weather,fs9 tur on,all the lights????? and i think it's somthing wrong with interface active sky evoliution,and fs9,because,what i to notice:when active sky sent visibility 5 mile,into fs9,then i to go to fs9 select world/weather/customise weather/visibility,and there i to see,not 5mil visibility,but,to set slider to unvisibility,than i manualy move slider to visibility 5 mil,than all ok,all the light runway,approach,turn on.,but when i close this user defined weather option,fs9 again set visibility to unvisible,so why fs9 to set visibility to unvisible,if active sky sent 5 mil visibility,not unvisibility???????

Share this post


Link to post
Share on other sites
Help AVSIM continue to serve you!
Please donate today!

Hi,What version is FSUIPC and is it set to default settings and weather settings Off?Is Lock to Closest On in ASE?Does ASE recognize your current location in FS?

Share this post


Link to post
Share on other sites
Hi,What version is FSUIPC and is it set to default settings and weather settings Off?Is Lock to Closest On in ASE?Does ASE recognize your current location in FS?
Hello,FSUIPC version is 3.90,yes default seting is set to default,and weather settings is set to off.Lock to closet is set to on.And ASE recognize my curent location,because,when i change airport in fs9,weather codition also change,and in ASE Lock to closest ON,are shown this airport where i am.

Share this post


Link to post
Share on other sites

Hi,Those are all OK, though you could update FSUIPC.All AS does in this situation is send the data to FS. It does not control the lighting. So now, if you believe that the depictions are wrong, then you need to post a screen shot of the ASE Report screen and what you see in FS.

Share this post


Link to post
Share on other sites